createdAt,value
2023-03-06T00:01:00.495Z,9.33
2023-03-06T00:03:28.346Z,9.00
2023-03-06T00:05:57.352Z,9.25
2023-03-06T00:08:25.471Z,9.68
2023-03-06T00:10:52.285Z,9.53
2023-03-06T00:13:19.962Z,9.57
2023-03-06T00:15:48.451Z,8.90
2023-03-06T00:18:15.655Z,9.70
2023-03-06T00:20:43.784Z,9.83
2023-03-06T00:23:11.702Z,9.90
2023-03-06T00:25:42.563Z,9.20
2023-03-06T00:28:09.457Z,9.60
2023-03-06T00:30:36.763Z,9.50
2023-03-06T00:33:03.877Z,9.95
2023-03-06T00:35:30.959Z,9.52
2023-03-06T00:37:59.767Z,10.00
2023-03-06T00:40:27.013Z,9.55
2023-03-06T00:42:53.913Z,10.07
2023-03-06T00:45:20.762Z,10.07
2023-03-06T00:47:47.796Z,9.70
2023-03-06T00:50:14.681Z,10.27
2023-03-06T00:52:42.119Z,10.40
2023-03-06T00:55:10.332Z,10.70
2023-03-06T00:57:37.340Z,11.05
2023-03-06T01:00:05.398Z,11.60
2023-03-06T01:02:32.675Z,10.88
2023-03-06T01:04:59.719Z,10.80
2023-03-06T01:07:27.854Z,11.60
2023-03-06T01:09:54.953Z,11.20
2023-03-06T01:12:23.500Z,11.20
2023-03-06T01:14:50.723Z,10.60
2023-03-06T01:17:17.941Z,10.40
2023-03-06T01:19:44.789Z,10.48
2023-03-06T01:22:11.733Z,11.02
2023-03-06T01:24:39.104Z,10.98
2023-03-06T01:27:06.083Z,10.63
2023-03-06T01:29:33.016Z,10.13
2023-03-06T01:31:59.970Z,10.45
2023-03-06T01:34:26.887Z,10.40
2023-03-06T01:36:53.841Z,10.23
2023-03-06T01:39:20.777Z,10.60
2023-03-06T01:41:47.603Z,10.30
2023-03-06T01:44:14.650Z,10.52
2023-03-06T01:46:43.221Z,9.60
2023-03-06T01:49:36.035Z,10.32
2023-03-06T01:52:09.017Z,10.70
2023-03-06T01:54:59.162Z,9.70
2023-03-06T01:57:30.523Z,9.52
2023-03-06T02:00:05.760Z,10.27
2023-03-06T02:02:40.618Z,10.90
2023-03-06T02:05:08.078Z,10.60
2023-03-06T02:07:36.249Z,11.10
2023-03-06T02:10:03.199Z,11.35
2023-03-06T02:12:30.281Z,10.40
2023-03-06T02:14:57.321Z,10.30
2023-03-06T02:17:24.922Z,10.60
2023-03-06T02:20:19.570Z,10.37
2023-03-06T02:22:52.934Z,10.40
2023-03-06T02:25:42.140Z,10.20
2023-03-06T02:28:13.165Z,11.30
2023-03-06T02:30:41.328Z,11.05
2023-03-06T02:33:10.986Z,9.90
2023-03-06T02:35:39.288Z,10.13
2023-03-06T02:38:13.565Z,11.00
2023-03-06T02:40:43.537Z,10.70
2023-03-06T02:43:11.986Z,10.00
2023-03-06T02:45:47.767Z,10.30
2023-03-06T02:48:16.331Z,10.80
2023-03-06T02:50:44.488Z,10.73
2023-03-06T02:53:14.062Z,10.00
2023-03-06T02:55:41.095Z,10.80
2023-03-06T02:58:08.096Z,11.30
2023-03-06T03:00:35.340Z,11.10
2023-03-06T03:03:02.836Z,10.03
2023-03-06T03:05:29.766Z,11.20
2023-03-06T03:07:56.662Z,11.48
2023-03-06T03:10:23.810Z,11.10
2023-03-06T03:12:51.506Z,11.82
2023-03-06T03:15:18.750Z,11.43
2023-03-06T03:17:45.685Z,11.50
2023-03-06T03:20:17.070Z,12.05
2023-03-06T03:22:48.142Z,11.48
2023-03-06T03:25:14.980Z,11.70
2023-03-06T03:27:41.825Z,11.90
2023-03-06T03:30:10.174Z,11.75
2023-03-06T03:32:37.103Z,12.35
2023-03-06T03:35:05.127Z,11.82
2023-03-06T03:37:32.293Z,12.25
2023-03-06T03:39:59.705Z,12.70
2023-03-06T03:42:26.611Z,11.68
2023-03-06T03:44:53.401Z,12.40
2023-03-06T03:47:20.265Z,12.45
2023-03-06T03:49:47.156Z,12.30
2023-03-06T03:52:13.973Z,12.20
2023-03-06T03:54:42.121Z,12.35
2023-03-06T03:57:09.256Z,11.45
2023-03-06T03:59:36.279Z,12.10
2023-03-06T04:02:04.888Z,11.20
2023-03-06T04:04:32.036Z,11.70
2023-03-06T04:06:58.970Z,11.23
2023-03-06T04:09:25.884Z,12.20
2023-03-06T04:11:52.791Z,12.48
2023-03-06T04:14:19.649Z,11.75
2023-03-06T04:16:46.582Z,12.10
2023-03-06T04:19:13.394Z,12.25
2023-03-06T04:21:40.571Z,12.20
2023-03-06T04:24:07.870Z,12.05
2023-03-06T04:26:36.058Z,11.85
2023-03-06T04:29:02.976Z,12.18
2023-03-06T04:31:30.027Z,12.10
2023-03-06T04:33:56.913Z,12.85
2023-03-06T04:36:29.733Z,12.38
2023-03-06T04:38:57.537Z,12.25
2023-03-06T04:41:24.700Z,12.90
2023-03-06T04:43:52.277Z,12.70
2023-03-06T04:46:19.559Z,12.90
2023-03-06T04:48:46.406Z,12.65
2023-03-06T04:51:13.859Z,12.70
2023-03-06T04:53:40.749Z,13.80
2023-03-06T04:56:07.937Z,13.38
2023-03-06T04:58:34.776Z,13.70
2023-03-06T05:01:01.757Z,13.50
2023-03-06T05:03:28.596Z,13.18
2023-03-06T05:05:55.602Z,12.93
2023-03-06T05:08:23.756Z,16.15
2023-03-06T05:10:59.384Z,16.00
2023-03-06T05:13:27.481Z,16.75
2023-03-06T05:15:54.609Z,16.57
2023-03-06T05:18:21.894Z,16.90
2023-03-06T05:20:48.865Z,16.88
2023-03-06T05:23:15.749Z,16.85
2023-03-06T05:25:42.705Z,17.50
2023-03-06T05:28:09.632Z,18.07
2023-03-06T05:30:36.755Z,18.08
2023-03-06T05:33:03.746Z,17.50
2023-03-06T05:35:30.794Z,17.75
2023-03-06T05:37:57.764Z,17.48
2023-03-06T05:40:24.642Z,17.20
2023-03-06T05:42:51.534Z,17.52
2023-03-06T05:45:18.641Z,18.17
2023-03-06T05:47:45.537Z,16.75
2023-03-06T05:50:14.021Z,17.35
2023-03-06T05:52:41.239Z,17.75
2023-03-06T05:55:11.530Z,18.73
2023-03-06T05:57:38.560Z,18.50
2023-03-06T06:00:06.448Z,18.02
2023-03-06T06:02:33.326Z,18.23
2023-03-06T06:05:02.483Z,17.60
2023-03-06T06:07:29.388Z,17.13
2023-03-06T06:09:56.246Z,15.90
2023-03-06T06:12:23.346Z,15.30
2023-03-06T06:14:50.209Z,15.52
2023-03-06T06:17:17.057Z,15.88
2023-03-06T06:19:43.882Z,16.15
2023-03-06T06:22:11.508Z,15.65
2023-03-06T06:24:38.643Z,15.35
2023-03-06T06:27:05.834Z,16.00
2023-03-06T06:29:33.510Z,15.40
2023-03-06T06:32:01.212Z,15.57
2023-03-06T06:34:28.721Z,16.63
2023-03-06T06:36:55.867Z,14.77
2023-03-06T06:39:23.961Z,15.40
2023-03-06T06:42:09.713Z,14.80
2023-03-06T06:44:39.754Z,15.75
2023-03-06T06:47:22.320Z,15.65
2023-03-06T06:49:55.430Z,15.95
2023-03-06T06:52:24.215Z,15.80
2023-03-06T06:54:51.869Z,15.75
2023-03-06T06:57:18.813Z,16.35
2023-03-06T06:59:45.824Z,16.13
2023-03-06T07:02:14.481Z,17.17
2023-03-06T07:04:56.157Z,17.25
2023-03-06T07:07:27.585Z,18.83
2023-03-06T07:09:55.337Z,18.17
2023-03-06T07:12:22.365Z,18.30
2023-03-06T07:14:49.172Z,18.08
2023-03-06T07:17:16.113Z,18.10
2023-03-06T07:19:42.986Z,19.00
2023-03-06T07:22:09.877Z,19.23
2023-03-06T07:24:36.748Z,19.60
2023-03-06T07:27:03.723Z,18.08
2023-03-06T07:29:32.942Z,18.95
2023-03-06T07:32:00.063Z,19.20
2023-03-06T07:34:27.026Z,18.65
2023-03-06T07:36:53.914Z,19.50
2023-03-06T07:39:20.873Z,18.90
2023-03-06T07:41:47.761Z,18.60
2023-03-06T07:44:14.666Z,18.03
2023-03-06T07:46:41.607Z,19.20
2023-03-06T07:49:08.559Z,18.65
2023-03-06T07:51:35.613Z,18.58
2023-03-06T07:54:02.570Z,17.13
2023-03-06T07:56:29.421Z,16.33
2023-03-06T07:58:57.161Z,17.35
2023-03-06T08:01:24.312Z,17.98
2023-03-06T08:03:52.147Z,17.23
2023-03-06T08:06:22.421Z,16.20
2023-03-06T08:08:50.953Z,16.52
2023-03-06T08:11:19.564Z,16.48
2023-03-06T08:13:48.414Z,16.90
2023-03-06T08:16:17.308Z,15.45
2023-03-06T08:18:46.230Z,15.10
2023-03-06T08:21:20.942Z,15.98
2023-03-06T08:23:48.342Z,15.65
2023-03-06T08:26:21.024Z,14.60
2023-03-06T08:28:48.157Z,15.05
2023-03-06T08:31:36.852Z,15.30
2023-03-06T08:34:06.314Z,14.68
2023-03-06T08:36:33.637Z,14.70
2023-03-06T08:39:00.900Z,15.13
2023-03-06T08:41:28.753Z,14.75
2023-03-06T08:43:55.660Z,14.20
2023-03-06T08:46:25.240Z,14.57
2023-03-06T08:48:52.234Z,14.50
2023-03-06T08:51:19.930Z,14.45
2023-03-06T08:53:47.470Z,14.50
2023-03-06T08:56:21.054Z,15.02
2023-03-06T08:58:48.105Z,14.13
2023-03-06T09:01:29.516Z,13.90
2023-03-06T09:03:59.324Z,14.40
2023-03-06T09:06:27.753Z,13.10
2023-03-06T09:08:55.209Z,14.50
2023-03-06T09:11:23.424Z,13.95
2023-03-06T09:13:50.619Z,13.15
2023-03-06T09:16:17.562Z,15.07
2023-03-06T09:18:44.467Z,14.77
2023-03-06T09:21:11.726Z,13.30
2023-03-06T09:23:39.623Z,15.03
2023-03-06T09:26:07.722Z,14.20
2023-03-06T09:28:39.245Z,15.30
2023-03-06T09:31:11.824Z,13.60
2023-03-06T09:33:39.108Z,14.70
2023-03-06T09:36:08.144Z,13.70
2023-03-06T09:38:35.276Z,12.20
2023-03-06T09:41:15.333Z,13.38
2023-03-06T09:43:45.523Z,13.50
2023-03-06T09:46:19.430Z,12.90
2023-03-06T09:49:10.396Z,12.95
2023-03-06T09:52:06.703Z,11.05
2023-03-06T09:54:44.173Z,9.82
2023-03-06T09:57:35.152Z,10.70
2023-03-06T10:00:07.397Z,10.65
2023-03-06T10:03:21.215Z,10.20
2023-03-06T10:05:53.795Z,9.82
2023-03-06T10:08:23.651Z,11.18
2023-03-06T10:11:03.697Z,10.20
2023-03-06T10:13:46.663Z,10.68
2023-03-06T10:16:25.547Z,10.93
2023-03-06T10:18:58.602Z,11.38
2023-03-06T10:21:25.436Z,12.80
2023-03-06T10:23:58.741Z,10.82
2023-03-06T10:26:32.739Z,11.02
2023-03-06T10:29:12.675Z,10.95
2023-03-06T10:31:49.669Z,10.60
2023-03-06T10:34:28.594Z,11.10
2023-03-06T10:36:58.252Z,10.80
2023-03-06T10:39:25.074Z,9.87
2023-03-06T10:41:51.948Z,11.05
2023-03-06T10:44:20.811Z,10.88
2023-03-06T10:46:51.530Z,11.52
2023-03-06T10:49:57.022Z,10.15
2023-03-06T10:52:24.580Z,10.95
2023-03-06T10:54:51.534Z,11.10
2023-03-06T10:57:28.555Z,10.23
2023-03-06T11:00:06.453Z,12.38
2023-03-06T11:02:40.890Z,11.43
2023-03-06T11:05:19.431Z,11.45
2023-03-06T11:07:57.498Z,11.45
2023-03-06T11:10:24.520Z,11.60
2023-03-06T11:12:57.534Z,10.38
2023-03-06T11:15:26.314Z,10.90
2023-03-06T11:17:56.239Z,12.27
2023-03-06T11:20:25.010Z,10.90
2023-03-06T11:23:00.364Z,11.10
2023-03-06T11:25:33.727Z,11.40
2023-03-06T11:28:41.604Z,11.80
2023-03-06T11:31:20.149Z,11.25
2023-03-06T11:34:01.997Z,10.23
2023-03-06T11:36:41.510Z,10.10
2023-03-06T11:39:37.104Z,10.70
2023-03-06T11:42:17.192Z,11.18
2023-03-06T11:45:25.000Z,11.65
2023-03-06T11:48:04.084Z,11.38
2023-03-06T11:50:38.632Z,11.25
2023-03-06T11:53:10.632Z,11.10
2023-03-06T11:56:00.750Z,10.50
2023-03-06T11:58:58.514Z,10.07
2023-03-06T12:01:40.225Z,9.60
2023-03-06T12:04:31.185Z,10.38
2023-03-06T12:07:01.416Z,9.55
2023-03-06T12:10:10.232Z,9.27
2023-03-06T12:12:58.346Z,9.50
2023-03-06T12:15:52.233Z,9.10
2023-03-06T12:19:03.408Z,10.07
2023-03-06T12:21:44.809Z,9.20
2023-03-06T12:24:27.794Z,8.20
2023-03-06T12:27:17.508Z,9.13
2023-03-06T12:29:47.393Z,7.88
2023-03-06T12:32:23.282Z,7.20
2023-03-06T12:34:55.986Z,8.40
2023-03-06T12:38:08.000Z,7.30
2023-03-06T12:40:53.732Z,7.30
2023-03-06T12:43:45.582Z,7.80
2023-03-06T12:46:23.898Z,7.97
2023-03-06T12:49:08.404Z,7.97
2023-03-06T12:51:35.932Z,8.25
2023-03-06T12:54:03.467Z,7.80
2023-03-06T12:56:32.960Z,7.90
2023-03-06T12:59:03.203Z,7.60
2023-03-06T13:01:57.532Z,8.27
2023-03-06T13:04:50.144Z,9.00
2023-03-06T13:07:35.688Z,7.43
2023-03-06T13:10:16.005Z,7.55
2023-03-06T13:12:57.900Z,7.50
2023-03-06T13:15:45.487Z,7.60
2023-03-06T13:18:24.330Z,7.40
2023-03-06T13:20:56.358Z,7.40
2023-03-06T13:23:35.422Z,7.78
2023-03-06T13:26:08.803Z,8.10
2023-03-06T13:28:46.408Z,7.65
2023-03-06T13:31:36.544Z,7.05
2023-03-06T13:34:06.247Z,7.25
2023-03-06T13:36:39.743Z,7.00
2023-03-06T13:39:09.360Z,7.78
2023-03-06T13:41:38.035Z,6.63
2023-03-06T13:44:24.930Z,6.50
2023-03-06T13:47:19.451Z,6.70
2023-03-06T13:49:48.248Z,6.75
2023-03-06T13:52:30.208Z,7.30
2023-03-06T13:55:12.375Z,6.83
2023-03-06T13:57:39.173Z,6.72
2023-03-06T14:00:32.148Z,6.90
2023-03-06T14:03:29.162Z,7.55
2023-03-06T14:05:56.277Z,6.82
2023-03-06T14:08:31.690Z,6.95
2023-03-06T14:11:13.604Z,7.60
2023-03-06T14:13:48.384Z,7.20
2023-03-06T14:16:24.522Z,7.40
2023-03-06T14:18:54.346Z,7.25
2023-03-06T14:21:55.537Z,7.10
2023-03-06T14:24:53.472Z,7.10
2023-03-06T14:27:20.576Z,6.20
2023-03-06T14:29:48.732Z,6.63
2023-03-06T14:32:22.396Z,6.90
2023-03-06T14:34:49.468Z,6.00
2023-03-06T14:37:22.755Z,6.28
2023-03-06T14:39:49.786Z,6.00
2023-03-06T14:42:25.201Z,6.20
2023-03-06T14:45:13.117Z,6.82
2023-03-06T14:47:39.930Z,6.90
2023-03-06T14:50:23.675Z,6.13
2023-03-06T14:53:04.869Z,5.65
2023-03-06T14:55:34.749Z,6.20
2023-03-06T14:58:15.054Z,6.40
2023-03-06T15:00:45.980Z,6.10
2023-03-06T15:03:20.983Z,6.57
2023-03-06T15:05:49.230Z,6.80
2023-03-06T15:08:25.653Z,6.30
2023-03-06T15:11:04.461Z,7.10
2023-03-06T15:13:33.070Z,6.97
2023-03-06T15:16:06.445Z,17.83
2023-03-06T15:18:58.455Z,9.35
2023-03-06T15:21:29.230Z,7.10
2023-03-06T15:23:57.655Z,6.90
2023-03-06T15:26:31.478Z,7.20
2023-03-06T15:29:10.030Z,6.80
2023-03-06T15:31:42.394Z,6.00
2023-03-06T15:34:09.283Z,6.40
2023-03-06T15:36:36.971Z,6.90
2023-03-06T15:39:28.556Z,8.00
2023-03-06T15:42:12.286Z,6.60
2023-03-06T15:44:39.114Z,6.83
2023-03-06T15:47:09.571Z,6.70
2023-03-06T15:49:38.462Z,6.03
2023-03-06T15:52:08.942Z,6.63
2023-03-06T15:54:36.410Z,6.93
2023-03-06T15:57:05.909Z,6.93
2023-03-06T15:59:40.386Z,7.22
2023-03-06T16:02:33.488Z,6.80
2023-03-06T16:05:02.522Z,8.00
2023-03-06T16:07:29.328Z,7.80
2023-03-06T16:09:56.258Z,7.65
2023-03-06T16:12:31.256Z,7.35
2023-03-06T16:15:01.054Z,7.68
2023-03-06T16:17:27.920Z,7.40
2023-03-06T16:19:54.758Z,7.85
2023-03-06T16:22:21.585Z,8.10
2023-03-06T16:24:48.412Z,7.88
2023-03-06T16:27:18.923Z,7.80
2023-03-06T16:29:46.094Z,8.27
2023-03-06T16:32:13.043Z,7.95
2023-03-06T16:34:39.920Z,7.93
2023-03-06T16:37:11.094Z,7.80
2023-03-06T16:39:37.922Z,7.30
2023-03-06T16:42:04.913Z,7.60
2023-03-06T16:44:31.701Z,6.88
2023-03-06T16:47:00.766Z,7.18
2023-03-06T16:49:27.819Z,7.00
2023-03-06T16:51:55.757Z,6.73
2023-03-06T16:54:26.013Z,6.60
2023-03-06T16:56:52.869Z,6.93
2023-03-06T16:59:19.792Z,6.10
2023-03-06T17:01:46.844Z,7.00
2023-03-06T17:04:13.692Z,7.15
2023-03-06T17:06:41.873Z,6.30
2023-03-06T17:09:10.866Z,7.00
2023-03-06T17:11:43.011Z,7.28
2023-03-06T17:14:09.883Z,7.15
2023-03-06T17:16:40.151Z,6.85
2023-03-06T17:19:07.585Z,7.85
2023-03-06T17:21:35.444Z,7.00
2023-03-06T17:24:03.741Z,9.77
2023-03-06T17:26:30.844Z,11.93
2023-03-06T17:28:57.789Z,10.60
2023-03-06T17:31:26.753Z,8.60
2023-03-06T17:33:57.136Z,8.15
2023-03-06T17:36:24.004Z,11.10
2023-03-06T17:38:54.113Z,10.13
2023-03-06T17:41:24.365Z,9.40
2023-03-06T17:43:52.665Z,8.82
2023-03-06T17:46:19.751Z,9.95
2023-03-06T17:48:46.925Z,9.70
2023-03-06T17:51:14.323Z,10.30
2023-03-06T17:53:41.201Z,9.30
2023-03-06T17:56:11.045Z,8.43
2023-03-06T17:58:37.939Z,8.10
2023-03-06T18:01:12.306Z,9.80
2023-03-06T18:03:39.623Z,8.80
2023-03-06T18:06:09.475Z,8.20
2023-03-06T18:08:37.271Z,8.07
2023-03-06T18:11:06.186Z,8.55
2023-03-06T18:13:34.623Z,7.80
2023-03-06T18:16:02.331Z,7.95
2023-03-06T18:18:29.717Z,8.55
2023-03-06T18:20:56.893Z,7.80
2023-03-06T18:23:23.889Z,8.73
2023-03-06T18:25:50.782Z,7.97
2023-03-06T18:28:17.764Z,8.15
2023-03-06T18:30:44.614Z,8.43
2023-03-06T18:33:11.549Z,8.65
2023-03-06T18:35:38.481Z,7.72
2023-03-06T18:38:05.388Z,8.13
2023-03-06T18:40:32.227Z,8.38
2023-03-06T18:42:59.101Z,8.13
2023-03-06T18:45:26.033Z,8.30
2023-03-06T18:47:52.959Z,7.70
2023-03-06T18:50:19.988Z,8.52
2023-03-06T18:52:46.933Z,7.68
2023-03-06T18:55:13.772Z,7.75
2023-03-06T18:57:41.033Z,7.78
2023-03-06T19:00:08.971Z,8.25
2023-03-06T19:02:35.940Z,8.13
2023-03-06T19:05:02.944Z,8.10
2023-03-06T19:07:29.817Z,7.65
2023-03-06T19:09:56.684Z,10.27
2023-03-06T19:12:23.613Z,8.00
2023-03-06T19:14:50.469Z,8.40
2023-03-06T19:17:17.424Z,7.70
2023-03-06T19:19:44.325Z,8.20
2023-03-06T19:22:11.203Z,8.80
2023-03-06T19:24:38.059Z,8.13
2023-03-06T19:27:04.925Z,8.10
2023-03-06T19:29:32.516Z,8.90
2023-03-06T19:31:59.506Z,8.95
2023-03-06T19:34:26.461Z,8.40
2023-03-06T19:36:53.462Z,9.55
2023-03-06T19:39:20.306Z,10.27
2023-03-06T19:41:48.009Z,10.10
2023-03-06T19:44:16.296Z,10.23
2023-03-06T19:46:43.666Z,10.30
2023-03-06T19:49:16.843Z,10.52
2023-03-06T19:51:44.481Z,9.80
2023-03-06T19:54:12.330Z,9.90
2023-03-06T19:56:39.796Z,9.38
2023-03-06T19:59:06.743Z,9.85
2023-03-06T20:01:34.364Z,9.05
2023-03-06T20:04:02.105Z,10.20
2023-03-06T20:06:33.627Z,9.30
2023-03-06T20:09:02.487Z,9.73
2023-03-06T20:11:32.623Z,9.10
2023-03-06T20:14:07.177Z,8.93
2023-03-06T20:16:34.788Z,8.73
2023-03-06T20:19:02.125Z,8.82
2023-03-06T20:21:31.850Z,8.77
2023-03-06T20:23:59.354Z,9.00
2023-03-06T20:26:27.575Z,9.20
2023-03-06T20:28:54.994Z,8.93
2023-03-06T20:31:24.293Z,8.73
2023-03-06T20:33:52.995Z,9.00
2023-03-06T20:36:29.607Z,8.80
2023-03-06T20:38:59.537Z,9.15
2023-03-06T20:41:28.582Z,8.98
2023-03-06T20:43:55.828Z,9.50
2023-03-06T20:46:23.583Z,9.00
2023-03-06T20:48:52.704Z,9.47
2023-03-06T20:51:25.310Z,9.05
2023-03-06T20:53:55.780Z,9.13
2023-03-06T20:56:30.528Z,8.77
2023-03-06T20:58:58.176Z,9.00
2023-03-06T21:01:31.070Z,9.38
2023-03-06T21:03:59.083Z,9.20
2023-03-06T21:06:28.545Z,9.60
2023-03-06T21:08:57.026Z,9.90
2023-03-06T21:11:24.678Z,9.45
2023-03-06T21:13:52.487Z,9.80
2023-03-06T21:16:21.099Z,7.95
2023-03-06T21:18:48.118Z,8.98
2023-03-06T21:21:18.458Z,8.57
2023-03-06T21:23:46.948Z,8.60
2023-03-06T21:26:16.150Z,8.20
2023-03-06T21:28:42.992Z,8.15
2023-03-06T21:31:11.577Z,8.90
2023-03-06T21:33:39.056Z,8.75
2023-03-06T21:36:07.038Z,8.40
2023-03-06T21:38:34.186Z,8.95
2023-03-06T21:41:16.008Z,8.40
2023-03-06T21:43:43.453Z,7.90
2023-03-06T21:46:10.739Z,7.38
2023-03-06T21:48:37.913Z,8.48
2023-03-06T21:51:07.058Z,8.50
2023-03-06T21:53:34.636Z,8.60
2023-03-06T21:56:02.092Z,8.73
2023-03-06T21:58:29.798Z,8.80
2023-03-06T22:00:57.011Z,9.40
2023-03-06T22:03:24.112Z,9.80
2023-03-06T22:05:52.099Z,9.70
2023-03-06T22:08:24.333Z,10.10
2023-03-06T22:10:51.253Z,9.65
2023-03-06T22:13:18.222Z,9.88
2023-03-06T22:15:52.727Z,9.80
2023-03-06T22:18:20.459Z,10.20
2023-03-06T22:20:47.417Z,8.82
2023-03-06T22:23:14.399Z,9.80
2023-03-06T22:25:41.253Z,9.80
2023-03-06T22:28:08.187Z,10.57
2023-03-06T22:30:35.067Z,10.18
2023-03-06T22:33:01.986Z,9.90
2023-03-06T22:35:28.957Z,10.43
2023-03-06T22:37:55.909Z,10.07
2023-03-06T22:40:22.766Z,9.00
2023-03-06T22:42:49.713Z,9.93
2023-03-06T22:45:16.604Z,9.95
2023-03-06T22:47:43.505Z,10.05
2023-03-06T22:50:11.002Z,10.30
2023-03-06T22:52:37.892Z,10.10
2023-03-06T22:55:05.232Z,10.02
2023-03-06T22:57:32.272Z,10.50
2023-03-06T22:59:59.118Z,10.57
2023-03-06T23:02:25.969Z,9.60
2023-03-06T23:04:53.319Z,10.20
2023-03-06T23:07:20.819Z,9.77
2023-03-06T23:09:47.764Z,9.73
2023-03-06T23:12:14.630Z,9.80
2023-03-06T23:14:41.708Z,9.45
2023-03-06T23:17:09.235Z,9.40
2023-03-06T23:19:36.245Z,9.60
2023-03-06T23:22:03.135Z,10.07
2023-03-06T23:24:30.165Z,9.43
2023-03-06T23:26:57.001Z,10.30
2023-03-06T23:29:23.838Z,9.98
2023-03-06T23:31:50.678Z,9.27
2023-03-06T23:34:17.609Z,10.90
2023-03-06T23:36:44.449Z,10.57
2023-03-06T23:39:12.354Z,9.48
2023-03-06T23:41:39.116Z,9.60
2023-03-06T23:44:24.772Z,9.77
2023-03-06T23:47:10.334Z,9.80
2023-03-06T23:49:55.855Z,10.85
2023-03-06T23:52:41.305Z,10.82
2023-03-06T23:55:27.215Z,10.48
2023-03-06T23:58:13.723Z,10.27
